createdAt,value
2022-08-23T00:01:43.369Z,18.40
2022-08-23T00:04:19.679Z,17.90
2022-08-23T00:06:47.267Z,17.10
2022-08-23T00:09:13.991Z,18.60
2022-08-23T00:11:44.266Z,19.10
2022-08-23T00:14:16.084Z,21.00
2022-08-23T00:16:42.583Z,18.90
2022-08-23T00:19:12.704Z,19.60
2022-08-23T00:21:40.043Z,19.70
2022-08-23T00:24:07.630Z,20.20
2022-08-23T00:27:04.871Z,20.30
2022-08-23T00:29:45.433Z,19.30
2022-08-23T00:32:15.659Z,19.50
2022-08-23T00:34:42.335Z,18.90
2022-08-23T00:37:10.037Z,20.80
2022-08-23T00:39:37.824Z,20.60
2022-08-23T00:42:27.837Z,20.40
2022-08-23T00:45:14.262Z,20.30
2022-08-23T00:47:41.332Z,23.70
2022-08-23T00:50:24.196Z,19.20
2022-08-23T00:53:05.516Z,19.30
2022-08-23T00:55:34.172Z,19.20
2022-08-23T00:58:01.540Z,19.20
2022-08-23T01:00:28.950Z,24.00
2022-08-23T01:02:56.720Z,17.70
2022-08-23T01:05:27.108Z,20.20
2022-08-23T01:07:57.544Z,21.60
2022-08-23T01:10:28.400Z,18.10
2022-08-23T01:13:03.818Z,18.50
2022-08-23T01:15:39.388Z,22.50
2022-08-23T01:18:08.233Z,21.30
2022-08-23T01:20:53.216Z,17.20
2022-08-23T01:23:37.783Z,21.10
2022-08-23T01:26:07.093Z,18.30
2022-08-23T01:28:36.837Z,20.70
2022-08-23T01:31:06.606Z,18.90
2022-08-23T01:33:34.082Z,21.50
2022-08-23T01:36:01.967Z,20.80
2022-08-23T01:38:32.792Z,19.40
2022-08-23T01:40:59.978Z,19.90
2022-08-23T01:43:26.677Z,19.90
2022-08-23T01:45:54.225Z,19.10
2022-08-23T01:48:22.931Z,18.40
2022-08-23T01:50:50.109Z,13.30
2022-08-23T01:53:17.331Z,16.10
2022-08-23T01:55:49.219Z,15.60
2022-08-23T01:58:17.240Z,15.80
2022-08-23T02:00:44.263Z,18.50
2022-08-23T02:03:13.220Z,16.60
2022-08-23T02:05:40.921Z,19.00
2022-08-23T02:08:28.375Z,17.20
2022-08-23T02:10:56.547Z,16.80
2022-08-23T02:13:23.942Z,15.50
2022-08-23T02:15:52.154Z,15.30
2022-08-23T02:18:20.257Z,11.80
2022-08-23T02:20:48.599Z,14.30
2022-08-23T02:23:15.760Z,13.70
2022-08-23T02:25:43.396Z,17.90
2022-08-23T02:28:10.802Z,17.90
2022-08-23T02:30:37.884Z,15.70
2022-08-23T02:33:06.538Z,15.30
2022-08-23T02:35:34.066Z,12.70
2022-08-23T02:38:05.225Z,19.20
2022-08-23T02:40:31.679Z,15.60
2022-08-23T02:42:59.723Z,14.20
2022-08-23T02:45:27.805Z,15.50
2022-08-23T02:47:54.813Z,12.30
2022-08-23T02:50:25.932Z,13.20
2022-08-23T02:52:54.667Z,13.00
2022-08-23T02:55:21.950Z,12.80
2022-08-23T02:57:48.489Z,13.20
2022-08-23T03:00:16.438Z,13.50
2022-08-23T03:02:43.178Z,12.20
2022-08-23T03:05:11.600Z,11.70
2022-08-23T03:07:40.136Z,13.00
2022-08-23T03:10:09.035Z,13.00
2022-08-23T03:12:36.397Z,14.70
2022-08-23T03:15:03.668Z,12.20
2022-08-23T03:17:32.470Z,12.60
2022-08-23T03:20:00.488Z,13.50
2022-08-23T03:22:27.014Z,12.80
2022-08-23T03:24:55.160Z,12.00
2022-08-23T03:27:23.455Z,12.50
2022-08-23T03:29:50.756Z,12.50
2022-08-23T03:32:17.966Z,12.20
2022-08-23T03:34:45.640Z,11.60
2022-08-23T03:37:12.288Z,14.30
2022-08-23T03:39:38.723Z,11.80
2022-08-23T03:42:06.307Z,10.50
2022-08-23T03:44:33.189Z,12.80
2022-08-23T03:46:59.684Z,12.40
2022-08-23T03:49:26.469Z,13.70
2022-08-23T03:51:54.661Z,12.10
2022-08-23T03:54:22.172Z,14.50
2022-08-23T03:57:00.479Z,13.70
2022-08-23T03:59:29.430Z,16.50
2022-08-23T04:01:56.050Z,13.90
2022-08-23T04:04:22.852Z,13.80
2022-08-23T04:07:18.950Z,12.70
2022-08-23T04:09:46.554Z,12.70
2022-08-23T04:12:17.449Z,13.10
2022-08-23T04:14:45.337Z,16.00
2022-08-23T04:17:14.140Z,12.40
2022-08-23T04:19:41.060Z,13.30
2022-08-23T04:22:13.537Z,13.80
2022-08-23T04:24:41.976Z,14.60
2022-08-23T04:27:09.030Z,14.10
2022-08-23T04:29:35.665Z,11.70
2022-08-23T04:32:05.474Z,14.30
2022-08-23T04:34:35.968Z,14.10
2022-08-23T04:37:02.429Z,12.60
2022-08-23T04:39:29.048Z,12.80
2022-08-23T04:42:15.085Z,14.90
2022-08-23T04:44:42.441Z,16.00
2022-08-23T04:47:09.030Z,13.20
2022-08-23T04:49:35.914Z,14.70
2022-08-23T04:52:03.750Z,13.60
2022-08-23T04:54:31.143Z,14.80
2022-08-23T04:57:16.512Z,15.60
2022-08-23T04:59:44.095Z,14.70
2022-08-23T05:02:10.468Z,14.00
2022-08-23T05:04:37.015Z,14.10
2022-08-23T05:07:03.850Z,14.10
2022-08-23T05:09:30.522Z,13.10
2022-08-23T05:11:57.216Z,11.70
2022-08-23T05:14:24.435Z,12.10
2022-08-23T05:16:50.927Z,12.90
2022-08-23T05:19:17.836Z,13.60
2022-08-23T05:21:46.241Z,11.60
2022-08-23T05:24:13.877Z,13.20
2022-08-23T05:26:41.965Z,12.40
2022-08-23T05:29:08.807Z,12.20
2022-08-23T05:31:39.964Z,11.30
2022-08-23T05:34:06.851Z,11.80
2022-08-23T05:36:48.097Z,12.80
2022-08-23T05:39:28.814Z,11.20
2022-08-23T05:42:06.473Z,11.60
2022-08-23T05:44:36.263Z,10.50
2022-08-23T05:47:06.864Z,10.10
2022-08-23T05:49:41.123Z,11.60
2022-08-23T05:52:11.602Z,11.80
2022-08-23T05:54:39.099Z,10.30
2022-08-23T05:57:27.338Z,10.70
2022-08-23T05:59:53.777Z,9.20
2022-08-23T06:02:20.811Z,9.30
2022-08-23T06:04:47.542Z,10.80
2022-08-23T06:07:14.453Z,10.70
2022-08-23T06:09:40.973Z,11.30
2022-08-23T06:12:08.898Z,13.70
2022-08-23T06:14:35.558Z,11.90
2022-08-23T06:17:02.338Z,11.60
2022-08-23T06:19:30.019Z,12.10
2022-08-23T06:22:03.006Z,10.90
2022-08-23T06:24:33.426Z,12.70
2022-08-23T06:27:07.834Z,12.20
2022-08-23T06:29:34.358Z,13.00
2022-08-23T06:32:19.503Z,10.30
2022-08-23T06:35:37.994Z,14.30
2022-08-23T06:38:24.112Z,13.70
2022-08-23T06:40:50.453Z,9.70
2022-08-23T06:43:26.575Z,11.60
2022-08-23T06:46:20.779Z,10.50
2022-08-23T06:48:50.836Z,10.60
2022-08-23T06:51:25.613Z,11.70
2022-08-23T06:54:02.910Z,11.70
2022-08-23T06:56:58.712Z,13.30
2022-08-23T06:59:31.601Z,16.10
2022-08-23T07:02:17.009Z,12.20
2022-08-23T07:05:10.243Z,14.20
2022-08-23T07:07:44.630Z,12.50
2022-08-23T07:10:15.236Z,12.10
2022-08-23T07:12:42.943Z,12.10
2022-08-23T07:15:13.495Z,11.20
2022-08-23T07:17:43.037Z,11.90
2022-08-23T07:20:09.951Z,13.10
2022-08-23T07:22:39.786Z,14.90
2022-08-23T07:25:07.532Z,14.60
2022-08-23T07:27:35.193Z,13.60
2022-08-23T07:30:06.746Z,12.10
2022-08-23T07:32:34.581Z,12.80
2022-08-23T07:35:21.925Z,12.80
2022-08-23T07:37:50.251Z,13.20
2022-08-23T07:40:20.590Z,14.60
2022-08-23T07:43:07.333Z,16.20
2022-08-23T07:45:38.986Z,11.30
2022-08-23T07:48:06.045Z,14.00
2022-08-23T07:50:40.751Z,16.60
2022-08-23T07:53:37.310Z,15.00
2022-08-23T07:56:08.344Z,16.00
2022-08-23T07:58:54.752Z,16.00
2022-08-23T08:01:37.314Z,14.60
2022-08-23T08:04:06.162Z,17.60
2022-08-23T08:06:40.774Z,16.50
2022-08-23T08:09:08.762Z,15.10
2022-08-23T08:11:35.964Z,17.90
2022-08-23T08:14:06.940Z,13.70
2022-08-23T08:16:36.932Z,14.30
2022-08-23T08:19:07.855Z,16.50
2022-08-23T08:21:53.128Z,17.60
2022-08-23T08:24:39.485Z,18.80
2022-08-23T08:27:10.789Z,19.50
2022-08-23T08:29:37.320Z,18.60
2022-08-23T08:32:04.400Z,16.30
2022-08-23T08:34:31.248Z,16.90
2022-08-23T08:37:00.323Z,18.10
2022-08-23T08:39:30.976Z,15.70
2022-08-23T08:42:23.424Z,19.50
2022-08-23T08:44:53.850Z,19.10
2022-08-23T08:47:40.292Z,17.10
2022-08-23T08:50:33.873Z,17.60
2022-08-23T08:53:13.260Z,18.40
2022-08-23T08:56:02.559Z,18.90
2022-08-23T08:58:43.472Z,18.80
2022-08-23T09:01:10.492Z,16.10
2022-08-23T09:03:39.888Z,16.70
2022-08-23T09:06:13.795Z,15.10
2022-08-23T09:08:56.858Z,19.30
2022-08-23T09:11:29.941Z,16.70
2022-08-23T09:14:06.109Z,19.40
2022-08-23T09:16:45.775Z,20.70
2022-08-23T09:19:12.394Z,17.50
2022-08-23T09:21:48.159Z,16.10
2022-08-23T09:24:15.412Z,18.90
2022-08-23T09:26:49.713Z,17.00
2022-08-23T09:29:25.003Z,14.40
2022-08-23T09:31:55.598Z,18.10
2022-08-23T09:34:41.342Z,19.50
2022-08-23T09:37:26.718Z,16.10
2022-08-23T09:40:16.339Z,17.10
2022-08-23T09:42:44.535Z,17.10
2022-08-23T09:45:33.144Z,20.80
2022-08-23T09:48:03.504Z,17.80
2022-08-23T09:50:39.689Z,16.40
2022-08-23T09:53:10.263Z,16.70
2022-08-23T09:55:47.300Z,19.50
2022-08-23T09:58:38.617Z,14.80
2022-08-23T10:01:16.521Z,14.20
2022-08-23T10:03:44.289Z,12.30
2022-08-23T10:06:31.497Z,13.60
2022-08-23T10:09:04.019Z,12.10
2022-08-23T10:11:44.569Z,14.50
2022-08-23T10:14:17.599Z,13.80
2022-08-23T10:17:19.740Z,16.00
2022-08-23T10:19:49.061Z,14.40
2022-08-23T10:22:21.676Z,17.30
2022-08-23T10:25:37.552Z,15.80
2022-08-23T10:28:46.653Z,14.00
2022-08-23T10:31:42.732Z,17.20
2022-08-23T10:34:40.416Z,13.80
2022-08-23T10:37:35.121Z,12.50
2022-08-23T10:40:20.566Z,13.30
2022-08-23T10:42:59.409Z,13.80
2022-08-23T10:45:31.978Z,14.50
2022-08-23T10:48:05.704Z,15.00
2022-08-23T10:50:41.628Z,13.00
2022-08-23T10:53:13.540Z,17.40
2022-08-23T10:55:54.532Z,16.10
2022-08-23T10:58:24.748Z,17.20
2022-08-23T11:00:53.443Z,16.10
2022-08-23T11:03:33.349Z,16.40
2022-08-23T11:06:26.469Z,17.80
2022-08-23T11:09:19.217Z,18.10
2022-08-23T11:12:02.455Z,15.20
2022-08-23T11:14:31.647Z,17.20
2022-08-23T11:17:01.008Z,21.40
2022-08-23T11:19:56.954Z,19.30
2022-08-23T11:23:10.799Z,20.10
2022-08-23T11:25:37.139Z,18.90
2022-08-23T11:28:21.890Z,19.80
2022-08-23T11:30:51.189Z,18.70
2022-08-23T11:33:25.065Z,18.20
2022-08-23T11:35:55.030Z,21.00
2022-08-23T11:38:46.691Z,18.00
2022-08-23T11:41:19.297Z,17.00
2022-08-23T11:43:56.536Z,15.50
2022-08-23T11:46:23.602Z,18.60
2022-08-23T11:48:58.931Z,19.40
2022-08-23T11:51:40.265Z,18.20
2022-08-23T11:54:27.481Z,18.20
2022-08-23T11:57:33.036Z,20.20
2022-08-23T12:00:12.058Z,19.00
2022-08-23T12:02:38.646Z,23.60
2022-08-23T12:05:32.025Z,18.70
2022-08-23T12:08:05.677Z,19.90
2022-08-23T12:10:41.613Z,22.90
2022-08-23T12:13:20.375Z,19.70
2022-08-23T12:16:17.457Z,19.90
2022-08-23T12:18:52.579Z,19.40
2022-08-23T12:21:23.706Z,22.10
2022-08-23T12:23:54.043Z,18.70
2022-08-23T12:26:39.921Z,17.50
2022-08-23T12:29:11.955Z,21.30
2022-08-23T12:31:57.905Z,18.80
2022-08-23T12:34:56.754Z,21.00
2022-08-23T12:37:37.708Z,22.20
2022-08-23T12:40:09.603Z,21.20
2022-08-23T12:42:37.829Z,17.60
2022-08-23T12:45:13.772Z,22.10
2022-08-23T12:47:43.230Z,21.00
2022-08-23T12:50:19.911Z,20.10
2022-08-23T12:53:15.920Z,19.50
2022-08-23T12:55:48.069Z,26.40
2022-08-23T12:58:16.720Z,22.70
2022-08-23T13:00:56.188Z,22.50
2022-08-23T13:03:34.928Z,25.00
2022-08-23T13:06:11.919Z,17.00
2022-08-23T13:08:57.249Z,21.40
2022-08-23T13:11:26.358Z,20.10
2022-08-23T13:13:53.718Z,21.70
2022-08-23T13:16:40.999Z,24.60
2022-08-23T13:19:30.559Z,22.30
2022-08-23T13:22:19.291Z,20.90
2022-08-23T13:25:24.634Z,23.00
2022-08-23T13:27:46.623Z,19.80
2022-08-23T13:30:12.989Z,19.10
2022-08-23T13:32:47.397Z,22.60
2022-08-23T13:35:42.971Z,21.10
2022-08-23T13:38:19.893Z,20.20
2022-08-23T13:41:01.106Z,20.60
2022-08-23T13:43:30.826Z,18.80
2022-08-23T13:46:00.563Z,19.60
2022-08-23T13:48:31.157Z,20.20
2022-08-23T13:51:45.893Z,21.70
2022-08-23T13:54:15.436Z,20.10
2022-08-23T13:57:11.021Z,19.60
2022-08-23T13:59:40.099Z,19.60
2022-08-23T14:02:11.932Z,19.30
2022-08-23T14:04:38.309Z,23.20
2022-08-23T14:07:07.869Z,18.80
2022-08-23T14:09:35.673Z,22.60
2022-08-23T14:12:05.674Z,25.50
2022-08-23T14:14:37.250Z,24.80
2022-08-23T14:17:04.748Z,23.90
2022-08-23T14:22:20.491Z,24.10
2022-08-23T14:24:46.911Z,26.90
2022-08-23T14:27:14.181Z,25.70
2022-08-23T14:29:40.651Z,29.20
2022-08-23T14:32:07.069Z,21.90
2022-08-23T14:34:33.685Z,25.70
2022-08-23T14:39:46.780Z,27.20
2022-08-23T14:42:17.742Z,24.30
2022-08-23T14:44:44.220Z,28.90
2022-08-23T14:47:10.871Z,26.10
2022-08-23T14:49:38.603Z,28.40
2022-08-23T14:52:05.719Z,25.50
2022-08-23T14:54:32.905Z,25.70
2022-08-23T14:56:59.413Z,26.00
2022-08-23T14:59:26.917Z,28.30
2022-08-23T15:01:54.192Z,27.90
2022-08-23T15:04:23.304Z,23.80
2022-08-23T15:07:16.166Z,22.70
2022-08-23T15:09:38.317Z,25.70
2022-08-23T15:14:52.304Z,24.30
2022-08-23T15:17:18.994Z,21.70
2022-08-23T15:19:45.513Z,21.60
2022-08-23T15:22:18.811Z,24.00
2022-08-23T15:24:49.257Z,25.90
2022-08-23T15:27:17.009Z,22.60
2022-08-23T15:29:44.131Z,23.20
2022-08-23T15:32:12.950Z,24.90
2022-08-23T15:34:45.652Z,24.20
2022-08-23T15:37:13.988Z,24.50
2022-08-23T15:39:41.884Z,29.30
2022-08-23T15:42:08.815Z,25.90
2022-08-23T15:44:35.298Z,25.50
2022-08-23T15:47:03.011Z,27.30
2022-08-23T15:49:36.213Z,26.20
2022-08-23T15:52:04.182Z,24.40
2022-08-23T15:54:30.826Z,23.70
2022-08-23T15:56:57.619Z,24.10
2022-08-23T15:59:24.200Z,25.90
2022-08-23T16:01:50.822Z,28.80
2022-08-23T16:04:18.483Z,29.60
2022-08-23T16:06:45.422Z,28.20
2022-08-23T16:09:17.995Z,27.80
2022-08-23T16:11:44.532Z,24.80
2022-08-23T16:14:11.583Z,24.30
2022-08-23T16:16:39.522Z,24.80
2022-08-23T16:19:08.141Z,28.00
2022-08-23T16:21:36.550Z,25.70
2022-08-23T16:24:03.680Z,24.60
2022-08-23T16:26:35.011Z,22.80
2022-08-23T16:29:06.865Z,21.00
2022-08-23T16:31:38.885Z,23.40
2022-08-23T16:34:08.478Z,20.40
2022-08-23T16:36:35.178Z,21.10
2022-08-23T16:39:01.824Z,21.40
2022-08-23T16:41:28.658Z,19.90
2022-08-23T16:43:55.302Z,20.80
2022-08-23T16:46:23.909Z,19.00
2022-08-23T16:48:50.723Z,18.10
2022-08-23T16:51:17.981Z,20.70
2022-08-23T16:53:44.836Z,22.40
2022-08-23T16:56:24.665Z,18.20
2022-08-23T16:58:51.303Z,17.90
2022-08-23T17:01:21.711Z,19.10
2022-08-23T17:03:48.882Z,20.10
2022-08-23T17:06:15.409Z,20.60
2022-08-23T17:08:42.062Z,21.20
2022-08-23T17:11:13.202Z,22.60
2022-08-23T17:13:40.648Z,20.70
2022-08-23T17:16:07.943Z,19.90
2022-08-23T17:18:34.662Z,21.20
2022-08-23T17:21:01.683Z,21.70
2022-08-23T17:23:28.427Z,24.50
2022-08-23T17:25:54.981Z,25.90
2022-08-23T17:28:23.481Z,27.20
2022-08-23T17:30:50.078Z,23.00
2022-08-23T17:33:16.632Z,22.50
2022-08-23T17:35:43.361Z,21.20
2022-08-23T17:38:09.787Z,20.70
2022-08-23T17:40:39.831Z,20.20
2022-08-23T17:43:07.604Z,27.40
2022-08-23T17:45:44.861Z,17.00
2022-08-23T17:48:12.927Z,18.10
2022-08-23T17:50:39.982Z,21.10
2022-08-23T17:53:06.712Z,21.10
2022-08-23T17:55:35.311Z,20.80
2022-08-23T17:58:03.963Z,20.30
2022-08-23T18:00:35.490Z,19.90
2022-08-23T18:03:03.371Z,19.70
2022-08-23T18:05:32.889Z,17.60
2022-08-23T18:08:00.286Z,19.60
2022-08-23T18:10:29.583Z,18.50
2022-08-23T18:12:57.514Z,18.20
2022-08-23T18:15:25.302Z,18.80
2022-08-23T18:17:53.966Z,20.60
2022-08-23T18:20:27.522Z,20.80
2022-08-23T18:22:55.863Z,19.70
2022-08-23T18:25:23.525Z,20.40
2022-08-23T18:28:10.326Z,20.00
2022-08-23T18:30:47.153Z,22.70
2022-08-23T18:33:15.991Z,18.70
2022-08-23T18:35:46.155Z,20.70
2022-08-23T18:38:14.590Z,17.90
2022-08-23T18:40:46.458Z,16.70
2022-08-23T18:43:22.613Z,20.60
2022-08-23T18:45:53.789Z,18.60
2022-08-23T18:48:22.658Z,19.50
2022-08-23T18:50:50.422Z,19.20
2022-08-23T18:53:19.829Z,19.90
2022-08-23T18:55:47.280Z,20.50
2022-08-23T18:58:14.741Z,20.10
2022-08-23T19:00:42.823Z,18.50
2022-08-23T19:03:11.175Z,22.50
2022-08-23T19:05:41.848Z,23.20
2022-08-23T19:08:11.347Z,21.30
2022-08-23T19:10:39.790Z,19.30
2022-08-23T19:13:08.917Z,21.00
2022-08-23T19:15:37.902Z,21.70
2022-08-23T19:18:05.344Z,22.00
2022-08-23T19:20:33.122Z,19.60
2022-08-23T19:23:00.441Z,20.60
2022-08-23T19:25:28.250Z,18.30
2022-08-23T19:27:58.954Z,20.20
2022-08-23T19:30:28.349Z,22.90
2022-08-23T19:32:56.989Z,20.90
2022-08-23T19:35:24.410Z,22.40
2022-08-23T19:37:51.861Z,20.20
2022-08-23T19:40:19.553Z,19.00
2022-08-23T19:42:46.881Z,19.40
2022-08-23T19:45:14.333Z,20.80
2022-08-23T19:47:41.975Z,19.40
2022-08-23T19:50:10.758Z,18.60
2022-08-23T19:52:38.141Z,19.10
2022-08-23T19:55:07.360Z,19.00
2022-08-23T19:57:36.433Z,20.30
2022-08-23T20:00:10.394Z,20.80
2022-08-23T20:02:37.902Z,18.90
2022-08-23T20:05:06.865Z,17.30
2022-08-23T20:07:36.196Z,19.10
2022-08-23T20:10:05.187Z,17.10
2022-08-23T20:12:33.357Z,16.70
2022-08-23T20:15:01.546Z,19.70
2022-08-23T20:17:29.694Z,16.60
2022-08-23T20:19:56.641Z,15.70
2022-08-23T20:22:42.645Z,15.70
2022-08-23T20:25:10.143Z,18.00
2022-08-23T20:27:37.550Z,17.60
2022-08-23T20:30:06.989Z,16.90
2022-08-23T20:32:34.221Z,16.50
2022-08-23T20:35:02.281Z,17.40
2022-08-23T20:37:29.624Z,15.10
2022-08-23T20:39:56.309Z,15.20
2022-08-23T20:42:23.522Z,19.70
2022-08-23T20:44:50.162Z,19.40
2022-08-23T20:47:17.175Z,16.00
2022-08-23T20:49:43.936Z,16.10
2022-08-23T20:52:11.830Z,15.80
2022-08-23T20:54:39.382Z,16.00
2022-08-23T20:57:06.122Z,16.80
2022-08-23T20:59:32.643Z,15.80
2022-08-23T21:01:59.284Z,16.90
2022-08-23T21:04:29.901Z,17.90
2022-08-23T21:06:57.805Z,17.60
2022-08-23T21:09:28.966Z,16.00
2022-08-23T21:11:56.478Z,20.90
2022-08-23T21:14:23.442Z,20.30
2022-08-23T21:16:50.383Z,18.00
2022-08-23T21:19:18.663Z,20.10
2022-08-23T21:21:45.602Z,18.40
2022-08-23T21:24:13.065Z,18.50
2022-08-23T21:26:40.402Z,18.40
2022-08-23T21:29:07.553Z,16.80
2022-08-23T21:31:34.704Z,20.80
2022-08-23T21:34:01.661Z,20.00
2022-08-23T21:36:28.499Z,19.60
2022-08-23T21:38:55.329Z,19.70
2022-08-23T21:41:39.182Z,22.20
2022-08-23T21:44:09.802Z,19.70
2022-08-23T21:46:37.023Z,17.90
2022-08-23T21:49:05.716Z,18.80
2022-08-23T21:51:34.798Z,19.70
2022-08-23T21:54:03.225Z,17.60
2022-08-23T21:56:29.963Z,19.00
2022-08-23T21:59:01.191Z,18.50
2022-08-23T22:01:28.077Z,25.00
2022-08-23T22:03:57.169Z,27.30
2022-08-23T22:06:24.308Z,26.60
2022-08-23T22:08:51.145Z,22.00
2022-08-23T22:11:18.183Z,24.60
2022-08-23T22:13:44.732Z,30.80
2022-08-23T22:16:11.593Z,28.40
2022-08-23T22:18:38.306Z,24.60
2022-08-23T22:21:06.697Z,23.30
2022-08-23T22:23:36.074Z,25.10
2022-08-23T22:26:06.003Z,24.10
2022-08-23T22:28:33.246Z,26.60
2022-08-23T22:31:01.328Z,25.00
2022-08-23T22:33:28.580Z,28.60
2022-08-23T22:36:01.044Z,29.40
2022-08-23T22:38:27.565Z,27.30
2022-08-23T22:40:54.099Z,27.50
2022-08-23T22:43:20.739Z,28.50
2022-08-23T22:45:58.705Z,29.90
2022-08-23T22:48:30.500Z,28.90
2022-08-23T22:51:13.322Z,32.50
2022-08-23T22:53:46.815Z,27.20
2022-08-23T22:56:16.861Z,26.50
2022-08-23T22:58:44.950Z,30.40
2022-08-23T23:01:23.534Z,28.60
2022-08-23T23:03:51.963Z,28.50
2022-08-23T23:06:19.468Z,30.00
2022-08-23T23:08:46.003Z,29.40
2022-08-23T23:11:14.880Z,27.50
2022-08-23T23:13:41.729Z,28.30
2022-08-23T23:16:10.906Z,27.50
2022-08-23T23:18:39.910Z,27.00
2022-08-23T23:21:07.703Z,31.00
2022-08-23T23:23:37.103Z,33.40
2022-08-23T23:26:04.245Z,36.60
2022-08-23T23:28:30.883Z,32.60
2022-08-23T23:30:57.639Z,34.10
2022-08-23T23:33:24.468Z,36.50
2022-08-23T23:35:54.060Z,35.50
2022-08-23T23:38:20.911Z,33.00
2022-08-23T23:40:47.447Z,38.30
2022-08-23T23:43:14.091Z,35.90
2022-08-23T23:45:42.356Z,36.60
2022-08-23T23:48:09.194Z,35.20
2022-08-23T23:50:36.764Z,36.40
2022-08-23T23:53:04.826Z,43.40
2022-08-23T23:55:31.364Z,38.10
2022-08-23T23:57:58.125Z,44.20
